createdAt,value
2023-03-18T00:00:45.515Z,99.90
2023-03-18T00:03:15.690Z,99.90
2023-03-18T00:05:43.792Z,99.90
2023-03-18T00:08:12.524Z,99.90
2023-03-18T00:10:40.781Z,99.90
2023-03-18T00:13:08.556Z,99.90
2023-03-18T00:15:37.126Z,99.90
2023-03-18T00:18:05.170Z,99.90
2023-03-18T00:20:39.410Z,99.90
2023-03-18T00:23:08.673Z,99.90
2023-03-18T00:25:37.471Z,99.90
2023-03-18T00:28:06.316Z,99.90
2023-03-18T00:30:35.001Z,99.90
2023-03-18T00:33:02.829Z,99.90
2023-03-18T00:35:31.284Z,99.90
2023-03-18T00:38:00.471Z,99.90
2023-03-18T00:40:42.808Z,99.90
2023-03-18T00:43:12.824Z,99.90
2023-03-18T00:45:42.610Z,99.90
2023-03-18T00:48:11.062Z,99.90
2023-03-18T00:50:38.948Z,99.90
2023-03-18T00:53:08.239Z,99.90
2023-03-18T00:55:36.097Z,99.90
2023-03-18T00:58:03.984Z,99.90
2023-03-18T01:00:32.116Z,99.90
2023-03-18T01:03:00.147Z,99.90
2023-03-18T01:05:28.215Z,99.90
2023-03-18T01:07:55.978Z,99.90
2023-03-18T01:10:25.556Z,99.90
2023-03-18T01:12:55.329Z,99.90
2023-03-18T01:15:23.919Z,99.90
2023-03-18T01:17:54.273Z,99.90
2023-03-18T01:20:23.612Z,99.90
2023-03-18T01:22:51.523Z,99.90
2023-03-18T01:25:20.279Z,99.90
2023-03-18T01:27:49.466Z,99.90
2023-03-18T01:30:17.768Z,99.90
2023-03-18T01:32:46.610Z,99.90
2023-03-18T01:35:14.439Z,99.90
2023-03-18T01:37:43.760Z,99.90
2023-03-18T01:40:13.651Z,99.90
2023-03-18T01:42:41.456Z,99.90
2023-03-18T01:45:21.565Z,99.90
2023-03-18T01:47:49.932Z,99.90
2023-03-18T01:50:20.321Z,99.90
2023-03-18T01:52:49.937Z,99.90
2023-03-18T01:55:20.883Z,99.90
2023-03-18T01:57:49.898Z,99.90
2023-03-18T02:00:21.495Z,99.90
2023-03-18T02:02:52.719Z,99.90
2023-03-18T02:05:22.641Z,99.90
2023-03-18T02:07:51.321Z,99.90
2023-03-18T02:10:21.666Z,99.90
2023-03-18T02:12:52.759Z,99.90
2023-03-18T02:15:24.549Z,99.90
2023-03-18T02:17:57.692Z,99.90
2023-03-18T02:20:38.172Z,99.90
2023-03-18T02:23:13.608Z,99.90
2023-03-18T02:25:50.820Z,99.90
2023-03-18T02:28:23.747Z,99.90
2023-03-18T02:30:54.074Z,99.90
2023-03-18T02:33:24.857Z,99.90
2023-03-18T02:35:58.521Z,99.90
2023-03-18T02:38:26.401Z,99.90
2023-03-18T02:40:54.840Z,99.90
2023-03-18T02:43:27.190Z,99.90
2023-03-18T02:46:29.716Z,99.90
2023-03-18T02:48:59.053Z,99.90
2023-03-18T02:51:27.754Z,99.90
2023-03-18T02:53:59.864Z,99.90
2023-03-18T02:56:27.621Z,99.90
2023-03-18T02:58:57.734Z,99.90
2023-03-18T03:01:26.283Z,99.90
2023-03-18T03:03:54.055Z,99.90
2023-03-18T03:06:21.889Z,99.90
2023-03-18T03:08:49.732Z,99.90
2023-03-18T03:11:18.597Z,99.90
2023-03-18T03:13:46.841Z,99.90
2023-03-18T03:16:17.477Z,99.90
2023-03-18T03:18:45.709Z,99.90
2023-03-18T03:21:14.597Z,99.90
2023-03-18T03:23:42.674Z,99.90
2023-03-18T03:26:11.619Z,99.90
2023-03-18T03:28:39.395Z,99.90
2023-03-18T03:31:08.784Z,99.90
2023-03-18T03:33:41.161Z,99.90
2023-03-18T03:36:10.520Z,99.90
2023-03-18T03:38:38.546Z,99.90
2023-03-18T03:41:06.397Z,99.90
2023-03-18T03:43:34.882Z,99.90
2023-03-18T03:46:02.770Z,99.90
2023-03-18T03:48:30.591Z,99.90
2023-03-18T03:50:59.865Z,99.90
2023-03-18T03:53:28.115Z,99.90
2023-03-18T03:55:58.994Z,99.90
2023-03-18T03:58:27.653Z,99.90
2023-03-18T04:00:55.760Z,99.90
2023-03-18T04:03:23.589Z,99.90
2023-03-18T04:05:51.385Z,99.90
2023-03-18T04:08:20.580Z,99.90
2023-03-18T04:10:48.979Z,99.90
2023-03-18T04:13:16.800Z,99.90
2023-03-18T04:15:45.020Z,99.90
2023-03-18T04:18:13.201Z,99.90
2023-03-18T04:20:41.678Z,99.90
2023-03-18T04:23:09.772Z,99.90
2023-03-18T04:25:38.905Z,99.90
2023-03-18T04:28:06.776Z,99.90
2023-03-18T04:30:34.679Z,99.90
2023-03-18T04:33:03.273Z,99.90
2023-03-18T04:35:31.282Z,99.90
2023-03-18T04:37:59.564Z,99.90
2023-03-18T04:40:27.402Z,99.90
2023-03-18T04:42:56.533Z,99.90
2023-03-18T04:45:24.810Z,99.90
2023-03-18T04:47:52.777Z,99.90
2023-03-18T04:50:20.687Z,99.90
2023-03-18T04:52:48.547Z,99.90
2023-03-18T04:55:17.919Z,99.90
2023-03-18T04:57:46.004Z,99.90
2023-03-18T05:00:18.189Z,99.90
2023-03-18T05:02:46.148Z,99.90
2023-03-18T05:05:14.336Z,99.90
2023-03-18T05:07:43.197Z,99.90
2023-03-18T05:10:13.445Z,99.90
2023-03-18T05:12:42.055Z,99.90
2023-03-18T05:15:12.131Z,99.90
2023-03-18T05:17:41.577Z,99.90
2023-03-18T05:20:11.456Z,99.90
2023-03-18T05:22:39.342Z,99.90
2023-03-18T05:25:08.748Z,99.90
2023-03-18T05:27:36.616Z,99.90
2023-03-18T05:30:05.005Z,99.90
2023-03-18T05:32:32.975Z,99.90
2023-03-18T05:35:03.721Z,99.90
2023-03-18T05:37:31.538Z,99.90
2023-03-18T05:39:59.930Z,99.90
2023-03-18T05:42:29.067Z,99.90
2023-03-18T05:44:57.879Z,99.90
2023-03-18T05:47:25.952Z,99.90
2023-03-18T05:49:53.768Z,99.90
2023-03-18T05:52:23.087Z,99.90
2023-03-18T05:54:51.009Z,99.90
2023-03-18T05:57:18.992Z,99.90
2023-03-18T05:59:46.829Z,99.90
2023-03-18T06:02:14.680Z,99.90
2023-03-18T06:04:42.583Z,99.90
2023-03-18T06:07:12.141Z,99.90
2023-03-18T06:09:41.398Z,99.90
2023-03-18T06:12:09.727Z,99.90
2023-03-18T06:14:37.748Z,99.90
2023-03-18T06:17:05.599Z,99.90
2023-03-18T06:19:34.067Z,99.90
2023-03-18T06:22:01.860Z,99.90
2023-03-18T06:24:29.687Z,99.90
2023-03-18T06:26:59.003Z,99.90
2023-03-18T06:29:26.885Z,99.90
2023-03-18T06:31:54.977Z,99.90
2023-03-18T06:34:23.595Z,99.90
2023-03-18T06:36:52.231Z,99.90
2023-03-18T06:39:20.749Z,99.90
2023-03-18T06:41:48.477Z,99.90
2023-03-18T06:44:17.625Z,99.90
2023-03-18T06:46:45.441Z,99.90
2023-03-18T06:49:13.476Z,99.90
2023-03-18T06:51:41.272Z,99.90
2023-03-18T06:54:09.964Z,99.90
2023-03-18T06:56:38.886Z,99.90
2023-03-18T06:59:07.897Z,99.90
2023-03-18T07:01:38.062Z,99.90
2023-03-18T07:04:06.797Z,99.90
2023-03-18T07:06:34.908Z,99.90
2023-03-18T07:09:02.792Z,99.90
2023-03-18T07:11:30.690Z,99.90
2023-03-18T07:13:58.538Z,99.90
2023-03-18T07:16:26.357Z,99.90
2023-03-18T07:18:58.153Z,99.90
2023-03-18T07:21:26.136Z,99.90
2023-03-18T07:23:55.467Z,99.90
2023-03-18T07:26:24.009Z,99.90
2023-03-18T07:28:52.224Z,99.90
2023-03-18T07:31:20.071Z,99.90
2023-03-18T07:33:48.693Z,99.90
2023-03-18T07:36:17.887Z,99.90
2023-03-18T07:38:46.097Z,99.90
2023-03-18T07:41:13.925Z,99.90
2023-03-18T07:43:41.887Z,99.90
2023-03-18T07:46:09.788Z,99.90
2023-03-18T07:48:37.655Z,99.90
2023-03-18T07:51:06.145Z,99.90
2023-03-18T07:53:35.842Z,99.90
2023-03-18T07:56:04.190Z,99.90
2023-03-18T07:58:32.571Z,99.90
2023-03-18T08:01:00.630Z,99.90
2023-03-18T08:03:28.930Z,99.90
2023-03-18T08:05:57.285Z,99.90
2023-03-18T08:08:25.470Z,99.90
2023-03-18T08:10:58.531Z,99.90
2023-03-18T08:13:26.941Z,99.90
2023-03-18T08:15:55.994Z,99.90
2023-03-18T08:18:24.032Z,99.90
2023-03-18T08:20:52.917Z,99.90
2023-03-18T08:23:20.757Z,99.90
2023-03-18T08:25:50.007Z,99.90
2023-03-18T08:28:19.885Z,99.90
2023-03-18T08:30:47.668Z,99.90
2023-03-18T08:33:15.884Z,99.90
2023-03-18T08:35:43.731Z,99.90
2023-03-18T08:38:11.770Z,99.90
2023-03-18T08:40:41.568Z,99.90
2023-03-18T08:43:09.819Z,99.90
2023-03-18T08:45:39.376Z,99.90
2023-03-18T08:48:08.153Z,99.90
2023-03-18T08:50:36.746Z,99.90
2023-03-18T08:53:05.596Z,99.90
2023-03-18T08:55:35.828Z,99.90
2023-03-18T08:58:05.481Z,99.90
2023-03-18T09:00:34.184Z,99.90
2023-03-18T09:03:03.865Z,99.90
2023-03-18T09:05:32.852Z,99.90
2023-03-18T09:08:01.225Z,99.90
2023-03-18T09:10:30.287Z,99.90
2023-03-18T09:12:58.181Z,99.90
2023-03-18T09:15:27.272Z,99.90
2023-03-18T09:18:10.292Z,99.90
2023-03-18T09:20:40.833Z,99.90
2023-03-18T09:23:09.157Z,99.90
2023-03-18T09:25:37.271Z,99.90
2023-03-18T09:28:05.382Z,99.90
2023-03-18T09:30:33.770Z,99.90
2023-03-18T09:33:01.824Z,99.90
2023-03-18T09:35:30.458Z,99.90
2023-03-18T09:37:59.892Z,99.90
2023-03-18T09:40:30.488Z,99.90
2023-03-18T09:43:10.784Z,99.90
2023-03-18T09:45:46.972Z,99.90
2023-03-18T09:48:37.620Z,99.90
2023-03-18T09:51:14.133Z,99.90
2023-03-18T09:53:48.491Z,99.90
2023-03-18T09:56:20.042Z,99.90
2023-03-18T09:58:53.733Z,99.90
2023-03-18T10:01:23.546Z,99.90
2023-03-18T10:03:56.740Z,99.90
2023-03-18T10:06:25.854Z,99.90
2023-03-18T10:09:02.248Z,99.90
2023-03-18T10:11:33.529Z,99.90
2023-03-18T10:14:15.903Z,99.90
2023-03-18T10:16:56.594Z,99.90
2023-03-18T10:19:24.914Z,99.90
2023-03-18T10:22:02.807Z,99.90
2023-03-18T10:24:38.733Z,99.90
2023-03-18T10:27:14.965Z,99.90
2023-03-18T10:29:46.601Z,99.90
2023-03-18T10:32:24.352Z,99.90
2023-03-18T10:35:03.974Z,99.90
2023-03-18T10:37:52.164Z,99.90
2023-03-18T10:40:21.888Z,99.90
2023-03-18T10:42:51.664Z,99.90
2023-03-18T10:45:24.901Z,99.90
2023-03-18T10:48:00.396Z,99.90
2023-03-18T10:50:35.188Z,99.90
2023-03-18T10:53:13.188Z,99.90
2023-03-18T10:55:51.857Z,99.90
2023-03-18T10:58:20.559Z,99.90
2023-03-18T11:00:49.921Z,99.80
2023-03-18T11:03:23.646Z,99.90
2023-03-18T11:05:53.266Z,99.90
2023-03-18T11:08:36.442Z,99.90
2023-03-18T11:11:28.399Z,99.90
2023-03-18T11:13:58.361Z,99.30
2023-03-18T11:16:31.430Z,99.90
2023-03-18T11:18:59.653Z,99.90
2023-03-18T11:21:29.730Z,99.90
2023-03-18T11:24:20.964Z,99.50
2023-03-18T11:26:55.867Z,99.50
2023-03-18T11:29:27.260Z,99.80
2023-03-18T11:31:58.148Z,98.80
2023-03-18T11:34:27.102Z,99.90
2023-03-18T11:36:58.944Z,99.90
2023-03-18T11:39:28.702Z,98.30
2023-03-18T11:41:59.349Z,99.90
2023-03-18T11:44:31.599Z,99.00
2023-03-18T11:47:05.038Z,98.30
2023-03-18T11:49:33.456Z,98.70
2023-03-18T11:52:30.809Z,99.20
2023-03-18T11:55:19.043Z,98.00
2023-03-18T11:58:16.504Z,97.80
2023-03-18T12:00:50.205Z,96.90
2023-03-18T12:03:53.519Z,97.50
2023-03-18T12:06:23.115Z,97.40
2023-03-18T12:09:01.068Z,96.20
2023-03-18T12:11:44.563Z,96.70
2023-03-18T12:14:19.964Z,96.90
2023-03-18T12:16:59.262Z,97.00
2023-03-18T12:19:50.599Z,99.30
2023-03-18T12:22:33.638Z,97.30
2023-03-18T12:25:19.677Z,97.50
2023-03-18T12:27:59.486Z,98.00
2023-03-18T12:30:46.362Z,98.10
2023-03-18T12:33:28.328Z,99.00
2023-03-18T12:36:05.227Z,97.40
2023-03-18T12:38:56.675Z,96.70
2023-03-18T12:41:32.008Z,96.30
2023-03-18T12:44:14.235Z,98.50
2023-03-18T12:46:49.384Z,98.10
2023-03-18T12:49:22.340Z,96.30
2023-03-18T12:51:57.127Z,97.20
2023-03-18T12:54:30.140Z,96.50
2023-03-18T12:57:04.703Z,95.90
2023-03-18T12:59:36.386Z,96.20
2023-03-18T13:02:31.495Z,96.70
2023-03-18T13:05:02.737Z,96.50
2023-03-18T13:07:38.743Z,97.50
2023-03-18T13:10:18.331Z,97.20
2023-03-18T13:12:49.479Z,95.90
2023-03-18T13:15:28.008Z,96.40
2023-03-18T13:18:00.257Z,96.10
2023-03-18T13:20:31.674Z,97.50
2023-03-18T13:23:13.851Z,96.60
2023-03-18T13:25:53.359Z,95.50
2023-03-18T13:28:45.836Z,96.30
2023-03-18T13:31:23.999Z,95.50
2023-03-18T13:34:06.384Z,95.40
2023-03-18T13:36:58.384Z,94.60
2023-03-18T13:39:49.430Z,94.70
2023-03-18T13:42:23.497Z,95.50
2023-03-18T13:44:59.804Z,95.90
2023-03-18T13:47:31.838Z,94.40
2023-03-18T13:50:03.615Z,93.70
2023-03-18T13:52:37.728Z,94.50
2023-03-18T13:55:08.840Z,93.80
2023-03-18T13:57:57.058Z,93.60
2023-03-18T14:00:32.974Z,93.20
2023-03-18T14:03:15.834Z,93.60
2023-03-18T14:05:46.827Z,94.10
2023-03-18T14:08:48.186Z,94.70
2023-03-18T14:11:50.263Z,95.00
2023-03-18T14:14:42.990Z,94.70
2023-03-18T14:17:33.486Z,95.40
2023-03-18T14:20:10.364Z,95.00
2023-03-18T14:22:40.172Z,94.50
2023-03-18T14:25:23.530Z,94.10
2023-03-18T14:27:54.806Z,94.70
2023-03-18T14:30:48.074Z,94.80
2023-03-18T14:33:34.359Z,95.00
2023-03-18T14:36:09.385Z,95.40
2023-03-18T14:38:46.472Z,95.20
2023-03-18T14:41:19.994Z,94.70
2023-03-18T14:43:55.845Z,94.20
2023-03-18T14:46:31.719Z,94.20
2023-03-18T14:48:59.778Z,93.70
2023-03-18T14:51:31.433Z,93.90
2023-03-18T14:54:05.799Z,94.40
2023-03-18T14:56:40.433Z,94.70
2023-03-18T14:59:13.266Z,94.70
2023-03-18T15:01:45.177Z,94.50
2023-03-18T15:04:19.049Z,94.70
2023-03-18T15:06:47.044Z,94.60
2023-03-18T15:09:20.491Z,94.70
2023-03-18T15:11:48.957Z,95.40
2023-03-18T15:14:21.513Z,95.00
2023-03-18T15:16:53.945Z,95.40
2023-03-18T15:19:23.147Z,95.10
2023-03-18T15:21:52.155Z,95.00
2023-03-18T15:24:23.715Z,95.10
2023-03-18T15:26:58.702Z,95.50
2023-03-18T15:29:29.073Z,96.20
2023-03-18T15:32:10.582Z,95.30
2023-03-18T15:34:42.122Z,95.60
2023-03-18T15:37:33.444Z,95.50
2023-03-18T15:43:00.507Z,95.50
2023-03-18T15:45:30.701Z,95.20
2023-03-18T15:48:05.620Z,95.40
2023-03-18T15:50:34.625Z,95.20
2023-03-18T15:53:05.248Z,95.40
2023-03-18T15:55:35.536Z,95.90
2023-03-18T15:58:14.169Z,95.90
2023-03-18T16:00:43.025Z,95.80
2023-03-18T16:03:18.523Z,95.70
2023-03-18T16:05:46.455Z,95.80
2023-03-18T16:08:21.295Z,95.90
2023-03-18T16:10:51.445Z,95.90
2023-03-18T16:13:27.569Z,96.40
2023-03-18T16:15:55.417Z,96.30
2023-03-18T16:18:23.738Z,96.40
2023-03-18T16:20:53.828Z,95.90
2023-03-18T16:23:22.348Z,96.00
2023-03-18T16:25:52.042Z,96.10
2023-03-18T16:28:22.601Z,96.40
2023-03-18T16:30:53.433Z,96.50
2023-03-18T16:33:21.696Z,96.50
2023-03-18T16:35:58.416Z,96.80
2023-03-18T16:38:28.308Z,97.10
2023-03-18T16:40:57.517Z,96.80
2023-03-18T16:43:27.287Z,97.50
2023-03-18T16:46:00.209Z,97.40
2023-03-18T16:48:28.894Z,97.30
2023-03-18T16:50:58.333Z,97.00
2023-03-18T16:53:29.562Z,97.60
2023-03-18T16:56:00.030Z,97.10
2023-03-18T16:58:33.083Z,97.40
2023-03-18T17:01:04.537Z,97.20
2023-03-18T17:03:32.901Z,97.20
2023-03-18T17:06:00.799Z,97.30
2023-03-18T17:08:28.587Z,97.30
2023-03-18T17:10:59.090Z,97.60
2023-03-18T17:13:29.849Z,97.60
2023-03-18T17:15:57.827Z,97.70
2023-03-18T17:18:27.830Z,97.90
2023-03-18T17:20:55.716Z,98.70
2023-03-18T17:23:26.613Z,99.00
2023-03-18T17:25:55.821Z,99.20
2023-03-18T17:28:31.076Z,99.40
2023-03-18T17:30:59.949Z,99.50
2023-03-18T17:33:31.039Z,99.90
2023-03-18T17:36:00.479Z,99.90
2023-03-18T17:38:28.829Z,99.90
2023-03-18T17:40:56.671Z,99.90
2023-03-18T17:43:28.998Z,99.90
2023-03-18T17:45:58.136Z,99.90
2023-03-18T17:48:27.439Z,99.90
2023-03-18T17:50:59.685Z,99.90
2023-03-18T17:53:33.221Z,99.90
2023-03-18T17:56:01.749Z,99.90
2023-03-18T17:58:31.746Z,99.90
2023-03-18T18:01:05.478Z,99.90
2023-03-18T18:03:35.151Z,99.90
2023-03-18T18:06:04.670Z,99.90
2023-03-18T18:08:32.797Z,99.90
2023-03-18T18:11:10.805Z,99.90
2023-03-18T18:13:38.613Z,99.90
2023-03-18T18:16:06.981Z,99.90
2023-03-18T18:18:36.877Z,99.90
2023-03-18T18:21:11.514Z,99.90
2023-03-18T18:23:40.007Z,99.90
2023-03-18T18:26:09.410Z,99.90
2023-03-18T18:28:39.288Z,99.90
2023-03-18T18:31:09.197Z,99.90
2023-03-18T18:33:38.494Z,99.90
2023-03-18T18:36:08.729Z,99.90
2023-03-18T18:38:36.676Z,99.90
2023-03-18T18:41:04.737Z,99.90
2023-03-18T18:43:32.932Z,99.90
2023-03-18T18:46:01.150Z,99.90
2023-03-18T18:48:31.518Z,99.90
2023-03-18T18:50:59.510Z,99.90
2023-03-18T18:53:30.870Z,99.90
2023-03-18T18:56:00.943Z,99.90
2023-03-18T18:58:30.702Z,99.90
2023-03-18T19:00:59.692Z,99.90
2023-03-18T19:03:31.372Z,99.90
2023-03-18T19:06:01.280Z,99.90
2023-03-18T19:08:34.279Z,99.90
2023-03-18T19:11:03.689Z,99.90
2023-03-18T19:13:33.112Z,99.90
2023-03-18T19:16:04.134Z,99.90
2023-03-18T19:18:38.420Z,99.90
2023-03-18T19:21:06.798Z,99.90
2023-03-18T19:23:36.656Z,99.90
2023-03-18T19:26:07.278Z,99.90
2023-03-18T19:28:58.415Z,99.90
2023-03-18T19:31:30.305Z,99.90
2023-03-18T19:34:00.379Z,99.90
2023-03-18T19:36:30.874Z,99.90
2023-03-18T19:39:01.507Z,99.90
2023-03-18T19:41:30.305Z,99.90
2023-03-18T19:44:03.806Z,99.90
2023-03-18T19:46:38.851Z,99.90
2023-03-18T19:49:19.044Z,99.90
2023-03-18T19:51:48.745Z,99.90
2023-03-18T19:54:28.176Z,99.90
2023-03-18T19:56:57.296Z,99.90
2023-03-18T19:59:33.591Z,99.90
2023-03-18T20:02:05.398Z,99.90
2023-03-18T20:04:33.276Z,99.90
2023-03-18T20:07:01.453Z,99.90
2023-03-18T20:09:31.157Z,99.90
2023-03-18T20:12:04.681Z,99.90
2023-03-18T20:14:37.859Z,99.90
2023-03-18T20:17:33.249Z,99.90
2023-03-18T20:20:01.197Z,99.90
2023-03-18T20:22:32.854Z,99.90
2023-03-18T20:25:02.506Z,99.90
2023-03-18T20:27:31.471Z,99.90
2023-03-18T20:29:59.528Z,99.90
2023-03-18T20:32:27.649Z,99.90
2023-03-18T20:34:55.620Z,99.90
2023-03-18T20:37:30.866Z,99.90
2023-03-18T20:39:58.790Z,99.90
2023-03-18T20:42:28.240Z,99.90
2023-03-18T20:44:56.187Z,99.90
2023-03-18T20:47:24.041Z,99.90
2023-03-18T20:49:51.842Z,99.90
2023-03-18T20:52:27.948Z,99.90
2023-03-18T20:54:57.078Z,99.90
2023-03-18T20:57:25.296Z,99.90
2023-03-18T20:59:54.588Z,99.90
2023-03-18T21:02:31.254Z,99.90
2023-03-18T21:05:00.310Z,99.90
2023-03-18T21:07:31.497Z,99.90
2023-03-18T21:09:59.311Z,99.90
2023-03-18T21:12:27.442Z,99.90
2023-03-18T21:14:56.648Z,99.90
2023-03-18T21:17:26.363Z,99.90
2023-03-18T21:20:00.724Z,99.90
2023-03-18T21:22:33.274Z,99.90
2023-03-18T21:25:01.106Z,99.90
2023-03-18T21:27:29.759Z,99.90
2023-03-18T21:29:58.903Z,99.90
2023-03-18T21:32:29.732Z,99.90
2023-03-18T21:34:57.687Z,99.90
2023-03-18T21:37:27.329Z,99.90
2023-03-18T21:39:55.659Z,99.90
2023-03-18T21:42:25.277Z,99.90
2023-03-18T21:44:53.327Z,99.90
2023-03-18T21:47:24.158Z,99.90
2023-03-18T21:49:52.035Z,99.90
2023-03-18T21:52:23.546Z,99.90
2023-03-18T21:54:51.637Z,99.90
2023-03-18T21:57:21.902Z,99.90
2023-03-18T21:59:50.836Z,99.90
2023-03-18T22:02:27.390Z,99.90
2023-03-18T22:04:56.734Z,99.90
2023-03-18T22:07:24.709Z,99.90
2023-03-18T22:09:52.636Z,99.90
2023-03-18T22:12:23.817Z,99.90
2023-03-18T22:14:51.690Z,99.90
2023-03-18T22:17:26.388Z,99.90
2023-03-18T22:19:55.611Z,99.90
2023-03-18T22:22:24.627Z,99.90
2023-03-18T22:24:52.680Z,99.90
2023-03-18T22:27:22.582Z,99.90
2023-03-18T22:29:51.758Z,99.90
2023-03-18T22:32:36.350Z,99.90
2023-03-18T22:35:05.216Z,99.90
2023-03-18T22:37:32.994Z,99.90
2023-03-18T22:40:01.388Z,99.90
2023-03-18T22:42:29.341Z,99.90
2023-03-18T22:44:57.195Z,99.90
2023-03-18T22:47:26.757Z,99.90
2023-03-18T22:49:55.854Z,99.90
2023-03-18T22:52:26.207Z,99.90
2023-03-18T22:54:56.769Z,99.90
2023-03-18T22:57:28.467Z,99.90
2023-03-18T22:59:58.197Z,99.90
2023-03-18T23:02:27.462Z,99.90
2023-03-18T23:04:57.448Z,99.90
2023-03-18T23:07:28.870Z,99.90
2023-03-18T23:09:59.164Z,99.90
2023-03-18T23:12:30.166Z,99.90
2023-03-18T23:14:58.746Z,99.90
2023-03-18T23:17:28.855Z,99.90
2023-03-18T23:19:58.821Z,99.90
2023-03-18T23:22:29.243Z,99.90
2023-03-18T23:24:57.633Z,99.90
2023-03-18T23:27:27.149Z,99.90
2023-03-18T23:29:55.912Z,99.90
2023-03-18T23:32:24.777Z,99.90
2023-03-18T23:34:52.659Z,99.90
2023-03-18T23:37:23.512Z,99.90
2023-03-18T23:39:51.317Z,99.90
2023-03-18T23:42:20.764Z,99.90
2023-03-18T23:44:49.109Z,99.90
2023-03-18T23:47:17.372Z,99.90
2023-03-18T23:49:45.141Z,99.90
2023-03-18T23:52:15.670Z,99.90
2023-03-18T23:54:44.813Z,99.90
2023-03-18T23:57:13.096Z,99.90
2023-03-18T23:59:41.195Z,99.90
